createdAt,value
2022-08-21T00:00:22.066Z,23.80
2022-08-21T00:01:22.075Z,23.79
2022-08-21T00:02:22.137Z,23.84
2022-08-21T00:03:22.087Z,23.84
2022-08-21T00:04:22.709Z,23.93
2022-08-21T00:05:22.432Z,23.91
2022-08-21T00:06:22.087Z,23.88
2022-08-21T00:07:22.097Z,23.95
2022-08-21T00:08:22.306Z,23.97
2022-08-21T00:09:22.095Z,23.84
2022-08-21T00:10:22.106Z,23.87
2022-08-21T00:11:22.092Z,23.85
2022-08-21T00:12:22.106Z,23.88
2022-08-21T00:13:22.109Z,23.80
2022-08-21T00:14:22.162Z,23.84
2022-08-21T00:15:22.102Z,23.80
2022-08-21T00:16:22.114Z,23.85
2022-08-21T00:17:22.119Z,23.83
2022-08-21T00:18:22.129Z,23.83
2022-08-21T00:19:22.130Z,23.80
2022-08-21T00:20:22.125Z,23.85
2022-08-21T00:21:22.133Z,23.83
2022-08-21T00:22:22.162Z,23.84
2022-08-21T00:23:22.144Z,23.80
2022-08-21T00:24:22.118Z,23.83
2022-08-21T00:25:24.421Z,23.87
2022-08-21T00:26:22.133Z,23.80
2022-08-21T00:27:22.133Z,23.85
2022-08-21T00:28:22.152Z,23.87
2022-08-21T00:29:22.147Z,23.80
2022-08-21T00:30:22.916Z,23.78
2022-08-21T00:31:22.145Z,23.79
2022-08-21T00:32:22.150Z,23.75
2022-08-21T00:33:22.147Z,23.76
2022-08-21T00:34:22.246Z,23.79
2022-08-21T00:35:22.156Z,23.84
2022-08-21T00:36:22.249Z,23.85
2022-08-21T00:37:22.157Z,23.75
2022-08-21T00:38:22.162Z,23.76
2022-08-21T00:39:22.157Z,23.73
2022-08-21T00:40:22.246Z,23.73
2022-08-21T00:41:38.495Z,23.69
2022-08-21T00:42:22.230Z,23.68
2022-08-21T00:43:22.186Z,23.70
2022-08-21T00:44:22.166Z,23.60
2022-08-21T00:45:22.163Z,23.55
2022-08-21T00:46:22.164Z,23.60
2022-08-21T00:47:22.186Z,23.63
2022-08-21T00:48:22.191Z,23.66
2022-08-21T00:49:22.176Z,23.72
2022-08-21T00:50:22.438Z,23.70
2022-08-21T00:51:22.190Z,23.70
2022-08-21T00:52:22.191Z,23.69
2022-08-21T00:53:22.202Z,23.75
2022-08-21T00:54:22.188Z,23.73
2022-08-21T00:55:23.478Z,23.75
2022-08-21T00:56:22.199Z,23.66
2022-08-21T00:57:22.199Z,23.57
2022-08-21T00:58:22.200Z,23.63
2022-08-21T00:59:22.267Z,23.69
2022-08-21T01:00:22.202Z,23.65
2022-08-21T01:01:22.281Z,23.60
2022-08-21T01:02:22.213Z,23.57
2022-08-21T01:03:23.848Z,23.55
2022-08-21T01:04:22.236Z,23.54
2022-08-21T01:05:22.224Z,23.48
2022-08-21T01:06:22.427Z,23.50
2022-08-21T01:07:22.235Z,23.55
2022-08-21T01:08:22.247Z,23.46
2022-08-21T01:09:22.267Z,23.50
2022-08-21T01:10:24.136Z,23.53
2022-08-21T01:11:22.231Z,23.48
2022-08-21T01:12:22.437Z,23.47
2022-08-21T01:13:22.269Z,23.47
2022-08-21T01:14:22.680Z,23.48
2022-08-21T01:15:22.256Z,23.46
2022-08-21T01:16:22.244Z,23.46
2022-08-21T01:17:22.259Z,23.36
2022-08-21T01:18:22.247Z,23.39
2022-08-21T01:19:22.250Z,23.35
2022-08-21T01:20:22.243Z,23.33
2022-08-21T01:21:22.258Z,23.39
2022-08-21T01:22:22.363Z,23.42
2022-08-21T01:23:22.264Z,23.38
2022-08-21T01:24:22.272Z,23.46
2022-08-21T01:25:22.257Z,23.42
2022-08-21T01:26:22.274Z,23.42
2022-08-21T01:27:22.264Z,23.51
2022-08-21T01:28:22.269Z,23.43
2022-08-21T01:29:22.266Z,23.43
2022-08-21T01:30:22.296Z,23.43
2022-08-21T01:31:26.076Z,23.48
2022-08-21T01:32:22.293Z,23.47
2022-08-21T01:33:22.279Z,23.43
2022-08-21T01:34:22.276Z,23.42
2022-08-21T01:35:22.298Z,23.48
2022-08-21T01:36:22.327Z,23.39
2022-08-21T01:37:22.297Z,23.38
2022-08-21T01:38:22.302Z,23.42
2022-08-21T01:39:22.641Z,23.38
2022-08-21T01:40:26.577Z,23.36
2022-08-21T01:41:22.310Z,23.51
2022-08-21T01:42:22.603Z,23.40
2022-08-21T01:43:23.839Z,23.51
2022-08-21T01:44:22.327Z,23.33
2022-08-21T01:45:22.327Z,23.42
2022-08-21T01:46:22.309Z,23.43
2022-08-21T01:47:22.314Z,23.42
2022-08-21T01:48:22.321Z,23.33
2022-08-21T01:49:22.330Z,23.40
2022-08-21T01:50:22.310Z,23.36
2022-08-21T01:51:22.327Z,23.39
2022-08-21T01:52:22.338Z,23.39
2022-08-21T01:53:22.328Z,23.38
2022-08-21T01:54:22.368Z,23.39
2022-08-21T01:55:22.326Z,23.42
2022-08-21T01:56:22.323Z,23.46
2022-08-21T01:57:22.320Z,23.38
2022-08-21T01:58:22.345Z,23.28
2022-08-21T01:59:22.356Z,23.36
2022-08-21T02:00:22.340Z,23.39
2022-08-21T02:01:22.451Z,23.32
2022-08-21T02:02:22.357Z,23.38
2022-08-21T02:03:31.280Z,23.35
2022-08-21T02:04:22.355Z,23.32
2022-08-21T02:05:22.360Z,23.27
2022-08-21T02:06:22.359Z,23.16
2022-08-21T02:07:22.542Z,23.20
2022-08-21T02:08:22.367Z,23.22
2022-08-21T02:09:22.347Z,23.22
2022-08-21T02:10:22.363Z,23.28
2022-08-21T02:11:22.357Z,23.22
2022-08-21T02:12:22.357Z,23.19
2022-08-21T02:13:22.370Z,23.23
2022-08-21T02:14:32.297Z,23.20
2022-08-21T02:15:22.374Z,23.13
2022-08-21T02:16:22.361Z,23.09
2022-08-21T02:17:22.369Z,22.98
2022-08-21T02:18:22.370Z,23.01
2022-08-21T02:19:25.966Z,23.04
2022-08-21T02:20:22.381Z,23.01
2022-08-21T02:21:22.408Z,23.00
2022-08-21T02:22:22.387Z,22.94
2022-08-21T02:23:26.884Z,22.90
2022-08-21T02:24:22.389Z,22.95
2022-08-21T02:25:22.387Z,22.79
2022-08-21T02:26:22.460Z,22.72
2022-08-21T02:27:24.658Z,22.72
2022-08-21T02:28:22.413Z,22.77
2022-08-21T02:29:22.498Z,22.76
2022-08-21T02:30:22.416Z,22.91
2022-08-21T02:31:22.453Z,22.77
2022-08-21T02:32:22.465Z,22.77
2022-08-21T02:33:22.415Z,22.77
2022-08-21T02:34:22.455Z,22.72
2022-08-21T02:35:22.416Z,22.67
2022-08-21T02:36:22.405Z,22.73
2022-08-21T02:37:22.422Z,22.68
2022-08-21T02:38:22.417Z,22.75
2022-08-21T02:39:27.390Z,22.80
2022-08-21T02:40:22.490Z,22.76
2022-08-21T02:41:22.429Z,22.75
2022-08-21T02:42:22.418Z,22.83
2022-08-21T02:43:22.421Z,22.77
2022-08-21T02:44:22.442Z,22.72
2022-08-21T02:45:22.495Z,22.61
2022-08-21T02:46:22.438Z,22.60
2022-08-21T02:47:22.453Z,22.60
2022-08-21T02:48:22.534Z,22.62
2022-08-21T02:49:22.541Z,22.61
2022-08-21T02:50:22.445Z,22.58
2022-08-21T02:51:22.448Z,22.57
2022-08-21T02:52:22.457Z,22.57
2022-08-21T02:53:22.445Z,22.60
2022-08-21T02:54:22.444Z,22.54
2022-08-21T02:55:22.444Z,22.60
2022-08-21T02:56:22.463Z,22.60
2022-08-21T02:57:22.479Z,22.52
2022-08-21T02:58:22.472Z,22.60
2022-08-21T02:59:22.493Z,22.49
2022-08-21T03:00:22.453Z,22.52
2022-08-21T03:01:22.522Z,22.55
2022-08-21T03:02:22.446Z,22.57
2022-08-21T03:03:22.459Z,22.61
2022-08-21T03:04:22.460Z,22.52
2022-08-21T03:05:22.462Z,22.51
2022-08-21T03:06:22.484Z,22.58
2022-08-21T03:07:22.490Z,22.62
2022-08-21T03:08:22.467Z,22.52
2022-08-21T03:09:22.476Z,22.57
2022-08-21T03:10:22.484Z,22.55
2022-08-21T03:11:22.491Z,22.55
2022-08-21T03:12:22.476Z,22.45
2022-08-21T03:13:22.501Z,22.42
2022-08-21T03:14:22.495Z,22.45
2022-08-21T03:15:22.497Z,22.43
2022-08-21T03:16:22.480Z,22.47
2022-08-21T03:17:29.684Z,22.47
2022-08-21T03:18:22.495Z,22.39
2022-08-21T03:19:22.517Z,22.43
2022-08-21T03:20:22.494Z,22.42
2022-08-21T03:21:22.511Z,22.47
2022-08-21T03:22:22.500Z,22.43
2022-08-21T03:23:22.494Z,22.43
2022-08-21T03:24:22.504Z,22.45
2022-08-21T03:25:28.313Z,22.39
2022-08-21T03:26:22.511Z,22.31
2022-08-21T03:27:22.517Z,22.36
2022-08-21T03:28:22.523Z,22.35
2022-08-21T03:29:22.517Z,22.39
2022-08-21T03:30:22.567Z,22.37
2022-08-21T03:31:22.806Z,22.45
2022-08-21T03:32:22.544Z,22.43
2022-08-21T03:33:23.162Z,22.46
2022-08-21T03:34:22.519Z,22.45
2022-08-21T03:35:22.519Z,22.40
2022-08-21T03:36:22.521Z,22.49
2022-08-21T03:37:22.835Z,22.46
2022-08-21T03:38:26.484Z,22.39
2022-08-21T03:39:22.526Z,22.35
2022-08-21T03:40:22.528Z,22.36
2022-08-21T03:41:22.534Z,22.37
2022-08-21T03:42:22.526Z,22.21
2022-08-21T03:43:22.538Z,22.21
2022-08-21T03:44:22.544Z,22.25
2022-08-21T03:45:22.561Z,22.14
2022-08-21T03:46:22.874Z,22.12
2022-08-21T03:47:22.560Z,21.98
2022-08-21T03:48:22.543Z,21.92
2022-08-21T03:49:22.546Z,21.88
2022-08-21T03:50:22.553Z,21.84
2022-08-21T03:51:22.546Z,21.86
2022-08-21T03:52:22.546Z,21.80
2022-08-21T03:53:22.565Z,21.77
2022-08-21T03:54:22.559Z,21.75
2022-08-21T03:55:22.557Z,21.82
2022-08-21T03:56:22.565Z,21.90
2022-08-21T03:57:22.568Z,21.86
2022-08-21T03:58:22.555Z,21.90
2022-08-21T03:59:22.560Z,21.86
2022-08-21T04:00:22.577Z,21.82
2022-08-21T04:01:22.637Z,21.80
2022-08-21T04:02:22.571Z,21.84
2022-08-21T04:03:22.579Z,21.83
2022-08-21T04:04:22.565Z,21.88
2022-08-21T04:05:22.569Z,21.86
2022-08-21T04:06:22.576Z,21.67
2022-08-21T04:07:22.577Z,21.75
2022-08-21T04:08:22.576Z,21.83
2022-08-21T04:09:22.652Z,21.82
2022-08-21T04:10:22.584Z,21.77
2022-08-21T04:11:22.584Z,21.77
2022-08-21T04:12:22.592Z,21.75
2022-08-21T04:13:22.608Z,21.69
2022-08-21T04:14:22.673Z,21.68
2022-08-21T04:15:22.628Z,21.75
2022-08-21T04:16:22.605Z,21.72
2022-08-21T04:17:22.613Z,21.75
2022-08-21T04:18:22.604Z,21.83
2022-08-21T04:19:22.627Z,21.83
2022-08-21T04:20:22.620Z,21.84
2022-08-21T04:21:24.232Z,21.88
2022-08-21T04:22:22.596Z,21.90
2022-08-21T04:23:23.651Z,21.86
2022-08-21T04:24:22.604Z,21.86
2022-08-21T04:25:22.606Z,21.86
2022-08-21T04:26:22.606Z,21.91
2022-08-21T04:27:22.622Z,21.80
2022-08-21T04:28:23.328Z,21.75
2022-08-21T04:29:22.613Z,21.75
2022-08-21T04:30:28.534Z,21.71
2022-08-21T04:31:22.618Z,21.74
2022-08-21T04:32:22.620Z,21.80
2022-08-21T04:33:22.654Z,21.74
2022-08-21T04:34:22.628Z,21.79
2022-08-21T04:35:22.619Z,21.75
2022-08-21T04:36:24.509Z,21.79
2022-08-21T04:37:22.646Z,21.80
2022-08-21T04:38:22.635Z,21.79
2022-08-21T04:39:22.630Z,21.77
2022-08-21T04:40:22.725Z,21.74
2022-08-21T04:41:27.921Z,21.75
2022-08-21T04:42:22.655Z,21.74
2022-08-21T04:43:22.646Z,21.72
2022-08-21T04:44:22.631Z,21.74
2022-08-21T04:45:22.677Z,21.75
2022-08-21T04:46:22.635Z,21.80
2022-08-21T04:47:22.638Z,21.84
2022-08-21T04:48:22.645Z,21.83
2022-08-21T04:49:22.643Z,21.86
2022-08-21T04:50:22.651Z,21.86
2022-08-21T04:51:22.653Z,21.80
2022-08-21T04:52:22.656Z,21.94
2022-08-21T04:53:22.661Z,21.94
2022-08-21T04:54:22.656Z,21.94
2022-08-21T04:55:22.659Z,21.92
2022-08-21T04:56:22.690Z,21.94
2022-08-21T04:57:22.666Z,21.99
2022-08-21T04:58:22.660Z,21.94
2022-08-21T04:59:22.660Z,22.05
2022-08-21T05:00:22.661Z,22.00
2022-08-21T05:01:22.733Z,22.03
2022-08-21T05:02:22.675Z,21.98
2022-08-21T05:03:22.668Z,22.06
2022-08-21T05:04:22.670Z,22.06
2022-08-21T05:05:22.680Z,22.07
2022-08-21T05:06:22.681Z,22.03
2022-08-21T05:07:42.163Z,21.99
2022-08-21T05:08:22.677Z,22.02
2022-08-21T05:09:22.673Z,22.03
2022-08-21T05:10:22.669Z,22.06
2022-08-21T05:11:22.683Z,22.06
2022-08-21T05:12:22.682Z,22.03
2022-08-21T05:13:22.685Z,22.12
2022-08-21T05:14:22.687Z,22.05
2022-08-21T05:15:22.707Z,22.10
2022-08-21T05:16:36.921Z,22.14
2022-08-21T05:17:22.693Z,22.06
2022-08-21T05:18:22.704Z,22.14
2022-08-21T05:19:22.712Z,22.17
2022-08-21T05:20:22.695Z,22.09
2022-08-21T05:21:22.713Z,22.10
2022-08-21T05:22:22.807Z,22.17
2022-08-21T05:23:22.703Z,22.17
2022-08-21T05:24:22.726Z,22.17
2022-08-21T05:25:23.695Z,22.20
2022-08-21T05:26:22.707Z,22.15
2022-08-21T05:27:22.713Z,22.25
2022-08-21T05:28:22.712Z,22.22
2022-08-21T05:29:22.719Z,22.20
2022-08-21T05:30:22.751Z,22.18
2022-08-21T05:31:22.720Z,22.24
2022-08-21T05:32:22.740Z,22.22
2022-08-21T05:33:22.716Z,22.22
2022-08-21T05:34:22.720Z,22.22
2022-08-21T05:35:22.730Z,22.25
2022-08-21T05:36:22.737Z,22.28
2022-08-21T05:37:22.725Z,22.22
2022-08-21T05:38:22.722Z,22.27
2022-08-21T05:39:22.729Z,22.27
2022-08-21T05:40:23.463Z,22.33
2022-08-21T05:41:22.746Z,22.36
2022-08-21T05:42:23.101Z,22.36
2022-08-21T05:43:22.735Z,22.40
2022-08-21T05:44:22.735Z,22.39
2022-08-21T05:45:41.798Z,22.43
2022-08-21T05:46:22.777Z,22.40
2022-08-21T05:47:22.743Z,22.40
2022-08-21T05:48:22.753Z,22.42
2022-08-21T05:49:22.752Z,22.51
2022-08-21T05:50:22.759Z,22.47
2022-08-21T05:51:22.757Z,22.52
2022-08-21T05:52:22.753Z,22.64
2022-08-21T05:53:22.756Z,22.58
2022-08-21T05:54:22.756Z,22.49
2022-08-21T05:55:22.764Z,22.58
2022-08-21T05:56:22.766Z,22.60
2022-08-21T05:57:22.763Z,22.55
2022-08-21T05:58:22.761Z,22.61
2022-08-21T05:59:22.771Z,22.62
2022-08-21T06:00:22.766Z,22.68
2022-08-21T06:01:22.789Z,22.60
2022-08-21T06:02:22.780Z,22.60
2022-08-21T06:03:22.766Z,22.72
2022-08-21T06:04:22.776Z,22.73
2022-08-21T06:05:36.335Z,22.72
2022-08-21T06:06:22.789Z,22.79
2022-08-21T06:07:22.788Z,22.62
2022-08-21T06:08:22.780Z,22.72
2022-08-21T06:09:22.783Z,22.75
2022-08-21T06:10:22.793Z,22.72
2022-08-21T06:11:25.796Z,22.77
2022-08-21T06:12:22.801Z,22.72
2022-08-21T06:13:22.788Z,22.79
2022-08-21T06:14:22.797Z,22.79
2022-08-21T06:15:22.786Z,22.86
2022-08-21T06:16:22.783Z,22.86
2022-08-21T06:17:22.806Z,22.86
2022-08-21T06:18:22.862Z,22.90
2022-08-21T06:19:23.224Z,22.91
2022-08-21T06:20:22.806Z,22.88
2022-08-21T06:21:22.850Z,22.94
2022-08-21T06:22:22.799Z,22.92
2022-08-21T06:23:22.817Z,22.90
2022-08-21T06:24:22.822Z,22.83
2022-08-21T06:25:22.833Z,22.85
2022-08-21T06:26:22.855Z,22.79
2022-08-21T06:27:26.564Z,22.85
2022-08-21T06:28:22.898Z,22.86
2022-08-21T06:29:22.827Z,22.97
2022-08-21T06:30:22.828Z,23.01
2022-08-21T06:31:22.856Z,23.02
2022-08-21T06:32:23.017Z,23.10
2022-08-21T06:33:22.829Z,23.05
2022-08-21T06:34:22.828Z,23.02
2022-08-21T06:35:22.825Z,23.07
2022-08-21T06:36:22.846Z,23.00
2022-08-21T06:37:23.162Z,23.13
2022-08-21T06:38:22.848Z,23.13
2022-08-21T06:39:24.840Z,23.16
2022-08-21T06:40:22.914Z,23.20
2022-08-21T06:41:24.066Z,23.12
2022-08-21T06:42:22.842Z,23.28
2022-08-21T06:43:22.866Z,23.38
2022-08-21T06:44:22.843Z,23.35
2022-08-21T06:45:22.919Z,23.40
2022-08-21T06:46:22.874Z,23.40
2022-08-21T06:47:22.880Z,23.43
2022-08-21T06:48:22.865Z,23.50
2022-08-21T06:49:22.868Z,23.40
2022-08-21T06:50:22.886Z,23.47
2022-08-21T06:51:22.857Z,23.46
2022-08-21T06:52:23.220Z,23.51
2022-08-21T06:53:22.877Z,23.53
2022-08-21T06:54:22.891Z,23.60
2022-08-21T06:55:26.244Z,23.61
2022-08-21T06:56:22.909Z,23.60
2022-08-21T06:57:22.934Z,23.57
2022-08-21T06:58:22.936Z,23.57
2022-08-21T06:59:22.907Z,23.58
2022-08-21T07:00:22.888Z,23.68
2022-08-21T07:01:22.979Z,23.75
2022-08-21T07:02:22.940Z,23.69
2022-08-21T07:04:22.901Z,23.90
2022-08-21T07:05:22.911Z,23.97
2022-08-21T07:06:22.935Z,24.08
2022-08-21T07:07:22.904Z,24.10
2022-08-21T07:08:22.998Z,24.16
2022-08-21T07:09:24.865Z,24.27
2022-08-21T07:10:23.238Z,24.20
2022-08-21T07:11:22.963Z,24.22
2022-08-21T07:12:22.913Z,24.34
2022-08-21T07:13:22.926Z,24.37
2022-08-21T07:14:22.947Z,24.42
2022-08-21T07:15:22.932Z,24.39
2022-08-21T07:16:22.940Z,24.47
2022-08-21T07:17:23.047Z,24.60
2022-08-21T07:18:22.943Z,24.69
2022-08-21T07:19:22.980Z,24.81
2022-08-21T07:20:23.008Z,24.91
2022-08-21T07:21:26.032Z,25.03
2022-08-21T07:22:22.946Z,25.13
2022-08-21T07:23:23.025Z,25.25
2022-08-21T07:24:22.984Z,25.42
2022-08-21T07:25:22.981Z,25.52
2022-08-21T07:26:22.956Z,25.55
2022-08-21T07:27:22.974Z,25.54
2022-08-21T07:28:23.002Z,25.65
2022-08-21T07:29:23.057Z,25.54
2022-08-21T07:30:23.145Z,25.45
2022-08-21T07:31:22.994Z,25.38
2022-08-21T07:32:22.970Z,25.25
2022-08-21T07:33:23.245Z,25.25
2022-08-21T07:34:23.151Z,25.25
2022-08-21T07:35:22.990Z,25.28
2022-08-21T07:36:23.054Z,25.23
2022-08-21T07:37:23.076Z,25.23
2022-08-21T07:38:23.199Z,25.14
2022-08-21T07:39:22.994Z,25.23
2022-08-21T07:40:23.096Z,25.25
2022-08-21T07:41:22.998Z,25.30
2022-08-21T07:42:23.206Z,25.24
2022-08-21T07:43:23.240Z,25.24
2022-08-21T07:44:23.120Z,25.24
2022-08-21T07:45:23.111Z,25.25
2022-08-21T07:46:23.057Z,25.23
2022-08-21T07:47:41.713Z,25.28
2022-08-21T07:48:23.057Z,25.38
2022-08-21T07:49:23.101Z,25.42
2022-08-21T07:50:23.148Z,25.42
2022-08-21T07:51:23.411Z,25.46
2022-08-21T07:52:23.107Z,25.55
2022-08-21T07:53:23.210Z,25.62
2022-08-21T07:54:33.874Z,25.58
2022-08-21T07:55:23.108Z,25.61
2022-08-21T07:56:23.080Z,25.58
2022-08-21T07:57:23.040Z,25.50
2022-08-21T07:58:23.284Z,25.54
2022-08-21T07:59:23.070Z,25.55
2022-08-21T08:00:23.043Z,25.50
2022-08-21T08:01:23.360Z,25.55
2022-08-21T08:02:23.323Z,25.61
2022-08-21T08:03:29.239Z,25.62
2022-08-21T08:04:26.332Z,25.79
2022-08-21T08:05:23.147Z,25.80
2022-08-21T08:06:33.098Z,25.90
2022-08-21T08:07:23.074Z,25.95
2022-08-21T08:08:23.326Z,26.10
2022-08-21T08:09:23.216Z,26.33
2022-08-21T08:10:23.163Z,26.44
2022-08-21T08:11:23.094Z,26.40
2022-08-21T08:12:23.123Z,26.45
2022-08-21T08:13:23.303Z,26.58
2022-08-21T08:14:29.035Z,26.77
2022-08-21T08:15:23.151Z,26.89
2022-08-21T08:16:23.121Z,27.06
2022-08-21T08:17:23.276Z,27.27
2022-08-21T08:18:23.149Z,27.28
2022-08-21T08:19:23.243Z,27.54
2022-08-21T08:20:23.192Z,27.74
2022-08-21T08:21:23.192Z,27.78
2022-08-21T08:22:23.153Z,27.90
2022-08-21T08:23:23.175Z,27.90
2022-08-21T08:24:23.158Z,27.81
2022-08-21T08:25:23.210Z,27.72
2022-08-21T08:26:23.384Z,27.88
2022-08-21T08:27:23.201Z,28.06
2022-08-21T08:28:23.216Z,28.22
2022-08-21T08:29:23.211Z,28.21
2022-08-21T08:30:23.223Z,28.18
2022-08-21T08:31:23.256Z,28.22
2022-08-21T08:32:23.230Z,28.21
2022-08-21T08:33:23.215Z,28.29
2022-08-21T08:34:25.763Z,28.36
2022-08-21T08:35:24.255Z,28.36
2022-08-21T08:36:23.337Z,28.30
2022-08-21T08:37:24.075Z,28.33
2022-08-21T08:39:26.609Z,28.24
2022-08-21T08:40:23.297Z,28.30
2022-08-21T08:41:23.305Z,28.27
2022-08-21T08:42:33.349Z,28.19
2022-08-21T08:43:23.346Z,28.12
2022-08-21T08:44:24.053Z,27.97
2022-08-21T08:45:23.267Z,28.02
2022-08-21T08:46:23.267Z,27.97
2022-08-21T08:47:23.276Z,27.90
2022-08-21T08:48:23.296Z,27.88
2022-08-21T08:49:23.350Z,27.97
2022-08-21T08:50:23.303Z,27.90
2022-08-21T08:51:23.309Z,27.84
2022-08-21T08:52:23.311Z,27.85
2022-08-21T08:53:23.502Z,27.99
2022-08-21T08:54:23.337Z,27.93
2022-08-21T08:55:27.140Z,27.93
2022-08-21T08:56:23.398Z,27.94
2022-08-21T08:57:23.349Z,27.96
2022-08-21T08:58:23.356Z,27.93
2022-08-21T08:59:26.101Z,27.99
2022-08-21T09:00:23.360Z,27.96
2022-08-21T09:01:23.401Z,28.06
2022-08-21T09:02:23.377Z,28.11
2022-08-21T09:03:23.421Z,28.14
2022-08-21T09:04:23.371Z,28.09
2022-08-21T09:05:23.401Z,28.02
2022-08-21T09:06:23.420Z,27.97
2022-08-21T09:07:23.386Z,27.99
2022-08-21T09:08:23.450Z,27.88
2022-08-21T09:09:23.439Z,27.84
2022-08-21T09:10:23.584Z,27.97
2022-08-21T09:11:23.497Z,27.99
2022-08-21T09:12:23.446Z,27.92
2022-08-21T09:13:23.975Z,27.85
2022-08-21T09:14:23.473Z,27.78
2022-08-21T09:15:23.605Z,27.72
2022-08-21T09:16:23.476Z,27.74
2022-08-21T09:17:23.481Z,27.84
2022-08-21T09:18:23.503Z,27.90
2022-08-21T09:19:25.000Z,27.88
2022-08-21T09:20:23.567Z,27.93
2022-08-21T09:21:23.515Z,27.92
2022-08-21T09:22:23.547Z,27.84
2022-08-21T09:23:23.583Z,27.81
2022-08-21T09:24:23.670Z,27.84
2022-08-21T09:25:24.144Z,27.79
2022-08-21T09:26:23.604Z,27.78
2022-08-21T09:27:23.620Z,27.87
2022-08-21T09:28:23.641Z,27.74
2022-08-21T09:29:23.587Z,27.84
2022-08-21T09:30:23.622Z,27.92
2022-08-21T09:31:23.682Z,27.81
2022-08-21T09:32:23.599Z,27.78
2022-08-21T09:33:23.687Z,27.72
2022-08-21T09:34:23.578Z,27.69
2022-08-21T09:35:23.934Z,27.62
2022-08-21T09:36:23.872Z,27.66
2022-08-21T09:37:23.591Z,27.74
2022-08-21T09:38:23.660Z,27.67
2022-08-21T09:39:23.794Z,27.63
2022-08-21T09:40:23.926Z,27.70
2022-08-21T09:41:23.920Z,27.55
2022-08-21T09:42:23.639Z,27.57
2022-08-21T09:43:23.693Z,27.57
2022-08-21T09:44:23.756Z,27.60
2022-08-21T09:45:24.077Z,27.65
2022-08-21T09:46:23.637Z,27.70
2022-08-21T09:47:26.726Z,27.78
2022-08-21T09:48:26.874Z,27.74
2022-08-21T09:49:23.699Z,27.67
2022-08-21T09:50:23.823Z,27.75
2022-08-21T09:51:23.930Z,27.93
2022-08-21T09:52:23.770Z,27.81
2022-08-21T09:53:23.707Z,27.79
2022-08-21T09:54:23.735Z,27.90
2022-08-21T09:55:23.736Z,27.99
2022-08-21T09:56:24.287Z,27.99
2022-08-21T09:57:23.954Z,27.94
2022-08-21T09:58:23.838Z,27.99
2022-08-21T09:59:23.776Z,27.93
2022-08-21T10:00:23.754Z,28.07
2022-08-21T10:01:23.859Z,28.11
2022-08-21T10:02:23.787Z,28.17
2022-08-21T10:03:26.674Z,28.18
2022-08-21T10:04:23.830Z,28.17
2022-08-21T10:05:23.818Z,28.04
2022-08-21T10:06:23.782Z,28.02
2022-08-21T10:07:23.840Z,27.92
2022-08-21T10:08:23.897Z,27.90
2022-08-21T10:09:23.846Z,27.87
2022-08-21T10:10:23.872Z,27.85
2022-08-21T10:11:23.904Z,27.96
2022-08-21T10:12:23.897Z,27.85
2022-08-21T10:13:23.857Z,27.77
2022-08-21T10:14:23.883Z,27.82
2022-08-21T10:15:23.894Z,27.78
2022-08-21T10:16:24.104Z,27.74
2022-08-21T10:17:24.003Z,27.79
2022-08-21T10:18:23.917Z,27.74
2022-08-21T10:19:24.028Z,27.79
2022-08-21T10:20:23.930Z,27.85
2022-08-21T10:21:24.012Z,27.90
2022-08-21T10:22:23.888Z,28.09
2022-08-21T10:23:23.946Z,28.19
2022-08-21T10:24:31.481Z,28.25
2022-08-21T10:30:18.246Z,28.31
2022-08-21T10:31:18.222Z,28.40
2022-08-21T10:32:25.719Z,28.49
2022-08-21T10:33:18.204Z,28.52
2022-08-21T10:34:21.492Z,28.59
2022-08-21T10:35:18.405Z,28.71
2022-08-21T10:36:18.670Z,28.66
2022-08-21T10:37:18.238Z,28.78
2022-08-21T10:38:39.398Z,28.89
2022-08-21T10:39:26.745Z,28.90
2022-08-21T10:40:18.855Z,28.90
2022-08-21T10:41:18.449Z,29.02
2022-08-21T10:42:18.325Z,29.04
2022-08-21T10:43:18.285Z,28.96
2022-08-21T10:44:18.280Z,29.18
2022-08-21T10:45:18.352Z,29.42
2022-08-21T10:46:18.472Z,29.41
2022-08-21T10:47:18.306Z,29.67
2022-08-21T10:48:18.302Z,29.79
2022-08-21T10:49:18.348Z,30.16
2022-08-21T10:50:18.501Z,30.27
2022-08-21T10:51:18.463Z,30.35
2022-08-21T10:52:18.374Z,30.70
2022-08-21T10:53:18.513Z,30.84
2022-08-21T10:54:48.845Z,30.99
2022-08-21T10:55:20.161Z,30.82
2022-08-21T10:56:18.373Z,30.98
2022-08-21T10:57:29.789Z,31.13
2022-08-21T10:58:18.672Z,31.01
2022-08-21T10:59:18.551Z,30.99
2022-08-21T11:00:18.982Z,31.01
2022-08-21T11:01:18.475Z,30.92
2022-08-21T11:02:18.508Z,31.34
2022-08-21T11:03:18.456Z,31.54
2022-08-21T11:04:18.435Z,31.65
2022-08-21T11:06:18.442Z,31.80
2022-08-21T11:07:18.845Z,32.01
2022-08-21T11:08:18.456Z,32.14
2022-08-21T11:09:18.526Z,32.30
2022-08-21T11:10:19.868Z,32.50
2022-08-21T11:11:19.988Z,32.60
2022-08-21T11:12:18.575Z,32.63
2022-08-21T11:13:18.514Z,32.60
2022-08-21T11:14:18.521Z,32.60
2022-08-21T11:15:28.793Z,32.55
2022-08-21T11:16:18.570Z,32.55
2022-08-21T11:17:21.884Z,32.52
2022-08-21T11:18:18.571Z,32.43
2022-08-21T11:19:18.580Z,32.32
2022-08-21T11:20:18.591Z,32.33
2022-08-21T11:21:18.611Z,32.32
2022-08-21T11:22:18.645Z,32.21
2022-08-21T11:23:18.712Z,32.23
2022-08-21T11:24:18.714Z,32.32
2022-08-21T11:25:18.657Z,32.47
2022-08-21T11:26:18.658Z,32.72
2022-08-21T11:27:19.029Z,32.87
2022-08-21T11:28:18.684Z,32.96
2022-08-21T11:29:18.743Z,33.06
2022-08-21T11:30:18.729Z,33.14
2022-08-21T11:31:18.919Z,33.19
2022-08-21T11:32:21.953Z,33.07
2022-08-21T11:33:18.792Z,33.16
2022-08-21T11:34:18.753Z,33.22
2022-08-21T11:35:18.793Z,33.06
2022-08-21T11:36:18.804Z,33.09
2022-08-21T11:37:18.882Z,33.03
2022-08-21T11:38:18.826Z,33.09
2022-08-21T11:39:18.881Z,32.89
2022-08-21T11:40:18.919Z,32.94
2022-08-21T11:41:18.858Z,33.04
2022-08-21T11:42:18.887Z,33.19
2022-08-21T11:43:18.918Z,33.53
2022-08-21T11:44:18.921Z,33.73
2022-08-21T11:45:18.986Z,33.95
2022-08-21T11:46:18.912Z,34.10
2022-08-21T11:47:19.317Z,34.06
2022-08-21T11:48:18.995Z,34.22
2022-08-21T11:49:19.051Z,34.42
2022-08-21T11:50:34.466Z,34.56
2022-08-21T11:51:19.303Z,34.72
2022-08-21T11:52:19.144Z,34.49
2022-08-21T11:53:19.100Z,34.24
2022-08-21T11:54:19.045Z,34.25
2022-08-21T11:55:23.631Z,34.42
2022-08-21T11:56:19.444Z,34.46
2022-08-21T11:57:19.135Z,34.44
2022-08-21T11:58:19.096Z,34.31
2022-08-21T11:59:19.129Z,34.35
2022-08-21T12:00:19.120Z,34.58
2022-08-21T12:01:19.163Z,34.81
2022-08-21T12:02:19.311Z,35.04
2022-08-21T12:03:19.147Z,35.11
2022-08-21T12:04:19.202Z,35.53
2022-08-21T12:05:19.291Z,35.72
2022-08-21T12:06:24.386Z,35.75
2022-08-21T12:07:19.273Z,35.85
2022-08-21T12:08:19.293Z,35.81
2022-08-21T12:09:19.272Z,35.80
2022-08-21T12:10:19.229Z,35.43
2022-08-21T12:11:19.378Z,35.36
2022-08-21T12:12:19.251Z,35.18
2022-08-21T12:13:19.273Z,35.06
2022-08-21T12:14:19.366Z,35.02
2022-08-21T12:15:19.292Z,34.94
2022-08-21T12:16:19.301Z,34.91
2022-08-21T12:17:20.421Z,34.49
2022-08-21T12:18:19.321Z,34.32
2022-08-21T12:19:19.388Z,34.06
2022-08-21T12:20:19.392Z,33.97
2022-08-21T12:21:19.406Z,33.65
2022-08-21T12:22:19.519Z,33.37
2022-08-21T12:23:19.462Z,33.31
2022-08-21T12:24:19.413Z,33.23
2022-08-21T12:25:21.707Z,33.00
2022-08-21T12:26:19.513Z,32.94
2022-08-21T12:27:19.511Z,32.79
2022-08-21T12:28:19.485Z,32.50
2022-08-21T12:29:19.491Z,32.37
2022-08-21T12:30:19.562Z,32.32
2022-08-21T12:31:19.498Z,32.13
2022-08-21T12:32:19.514Z,32.15
2022-08-21T12:33:19.545Z,32.07
2022-08-21T12:34:19.607Z,32.07
2022-08-21T12:35:24.324Z,31.99
2022-08-21T12:36:19.603Z,31.93
2022-08-21T12:37:19.560Z,31.96
2022-08-21T12:38:19.582Z,32.01
2022-08-21T12:39:19.646Z,32.01
2022-08-21T12:40:21.829Z,31.99
2022-08-21T12:41:19.648Z,32.03
2022-08-21T12:42:19.699Z,32.10
2022-08-21T12:43:19.756Z,32.13
2022-08-21T12:44:19.648Z,32.14
2022-08-21T12:45:19.705Z,32.29
2022-08-21T12:46:19.796Z,32.21
2022-08-21T12:47:19.671Z,32.37
2022-08-21T12:48:19.757Z,32.30
2022-08-21T12:49:19.732Z,32.40
2022-08-21T12:50:19.752Z,32.45
2022-08-21T12:51:19.749Z,32.35
2022-08-21T12:52:19.787Z,32.48
2022-08-21T12:53:20.837Z,32.50
2022-08-21T12:54:19.779Z,32.52
2022-08-21T12:55:19.799Z,32.45
2022-08-21T12:56:19.787Z,32.45
2022-08-21T12:57:19.807Z,32.50
2022-08-21T12:58:19.845Z,32.66
2022-08-21T12:59:19.844Z,32.59
2022-08-21T13:00:19.884Z,32.55